Cumberland, MD

12:39 AM EST on February 13, 2016 (GMT -0500)
Mountain View | | Change Station
CLOSE
Current Station
Personal Weather Station
Location: Cumberland, MD
Elevation: 750 ft
Nearby Weather Stations
Active Advisory: Wind Chill Advisory Active Notice: Public Information Statement

Elev 750 ft 39.63 °N, 78.75 °W | Updated 2 seconds ago

Scattered Clouds
Scattered Clouds
23.2 °F
Feels Like 15 °F
N
7.2
Wind Variable Wind from West
Gusts 12.3 mph

Today
High -- | Low -- °F
--% Chance of Precip.
Yesterday
High -- | Low -- °F
Precip. -- in
Pressure 30.02 in
Visibility 7.0 miles
Clouds Scattered Clouds 1000 ft
Scattered Clouds 1600 ft
Windchill 15 °F
Dew Point 14 °F
Humidity 69%
Rainfall 0.00 in
Snow Depth Not available.
7:10 AM 5:48 PM
Waxing Crescent, 27% visible
METAR KCBE 130523Z AUTO 27016G19KT 7SM SCT010 SCT016 M03/M10 A3002 RMK AO1
Pressure 30.02 in
Visibility 7.0 miles
Clouds Scattered Clouds 1000 ft
Scattered Clouds 1600 ft
Windchill 15 °F
Dew Point 14 °F
Humidity 69%
Rainfall 0.00 in
Snow Depth Not available.
7:10 AM 5:48 PM
Waxing Crescent, 27% visible
METAR KCBE 130523Z AUTO 27016G19KT 7SM SCT010 SCT016 M03/M10 A3002 RMK AO1

10-Day Weather Forecast

Almanac

Astronomy

Feb. 13, 2016 Rise Set
Actual Time
Civil Twilight
Nautical Twilight
Astronomical Twilight
Moon
Length of Visible Light
Length of Day
Tomorrow will be .
, % of the Moon is Illuminated

Today's Extremes

State Highs State Lows

Community

WunderPhotos

Upload Photos

1,892,508 photos uploaded!

WunderBlog® & News

Nearby

Air Quality

  Air Quality AQ Index Pollutant
Not available.

Snow Depth

Station Depth Elevation

Earthquake Activity

City Distance Mag. Time & Date
Minimum magnitude displayed is 2.5.

Coastal Water Temperatures

Place Temperature

Stations

Nearby Weather Stations

Station Location Temp. Windchill Dew Point Humidity Wind Precip. Elev Updated Type
                   

Watches & Warnings

Wind Chill Advisory
Issued: 11:53 PM EST Feb. 12, 2016 – National Weather Service

... Wind Chill Advisory remains in effect until 9 am EST Sunday...

* wind chills... 15 to 25 degrees below zero.

* Winds... northwest 15 to 25 mph with gusts up to 45 mph.

* Temperatures... 3 to 21 above.

* Timing... late tonight through Sunday morning.

* Impacts... frost bite and hypothermia are possible if
precautions are not taken.

Precautionary/preparedness actions...

A Wind Chill Advisory means that very cold air and strong winds
will combine to generate low wind chills. This will result in
frost bite and lead to hypothermia if precautions are not taken.
If you must venture outdoors... make sure you wear a hat and
gloves.